sensor_id;sensor_type;location;lat;lon;timestamp;P1;durP1;ratioP1;P2;durP2;ratioP2
54259;SDS011;40172;53.022;7.012;2022-07-06T03:43:48;8.05;;;2.47;;
54259;SDS011;40172;53.022;7.012;2022-07-06T03:46:14;6.28;;;2.08;;
54259;SDS011;40172;53.022;7.012;2022-07-06T03:48:40;8.30;;;2.10;;
54259;SDS011;40172;53.022;7.012;2022-07-06T03:51:05;12.15;;;2.13;;
54259;SDS011;40172;53.022;7.012;2022-07-06T03:53:32;7.63;;;2.25;;
54259;SDS011;40172;53.022;7.012;2022-07-06T03:55:57;6.93;;;2.40;;
54259;SDS011;40172;53.022;7.012;2022-07-06T03:58:42;5.68;;;1.90;;
54259;SDS011;40172;53.022;7.012;2022-07-06T04:01:07;6.35;;;1.80;;
54259;SDS011;40172;53.022;7.012;2022-07-06T04:03:33;6.65;;;1.77;;
54259;SDS011;40172;53.022;7.012;2022-07-06T04:05:59;13.38;;;2.17;;
54259;SDS011;40172;53.022;7.012;2022-07-06T04:08:24;10.00;;;2.20;;
54259;SDS011;40172;53.022;7.012;2022-07-06T04:10:50;5.13;;;2.13;;
54259;SDS011;40172;53.022;7.012;2022-07-06T04:13:16;7.53;;;1.95;;
54259;SDS011;40172;53.022;7.012;2022-07-06T04:15:41;5.72;;;1.83;;
54259;SDS011;40172;53.022;7.012;2022-07-06T04:18:07;6.60;;;1.95;;
54259;SDS011;40172;53.022;7.012;2022-07-06T04:20:32;5.47;;;1.73;;
54259;SDS011;40172;53.022;7.012;2022-07-06T04:22:58;10.15;;;2.17;;
54259;SDS011;40172;53.022;7.012;2022-07-06T04:25:24;6.00;;;1.98;;
54259;SDS011;40172;53.022;7.012;2022-07-06T04:27:51;12.00;;;2.30;;
54259;SDS011;40172;53.022;7.012;2022-07-06T04:30:16;6.60;;;1.98;;
54259;SDS011;40172;53.022;7.012;2022-07-06T04:32:42;8.15;;;2.00;;
54259;SDS011;40172;53.022;7.012;2022-07-06T04:35:08;11.20;;;2.45;;
54259;SDS011;40172;53.022;7.012;2022-07-06T04:37:34;6.18;;;2.00;;
54259;SDS011;40172;53.022;7.012;2022-07-06T04:39:59;8.88;;;2.10;;
54259;SDS011;40172;53.022;7.012;2022-07-06T04:42:25;11.43;;;2.20;;
54259;SDS011;40172;53.022;7.012;2022-07-06T04:44:51;6.70;;;1.77;;
54259;SDS011;40172;53.022;7.012;2022-07-06T04:47:16;7.18;;;1.88;;
54259;SDS011;40172;53.022;7.012;2022-07-06T04:49:42;12.20;;;2.17;;
54259;SDS011;40172;53.022;7.012;2022-07-06T04:52:08;6.63;;;1.63;;
54259;SDS011;40172;53.022;7.012;2022-07-06T04:54:33;7.55;;;1.90;;
54259;SDS011;40172;53.022;7.012;2022-07-06T04:56:59;6.68;;;1.65;;
54259;SDS011;40172;53.022;7.012;2022-07-06T04:59:25;14.60;;;1.80;;
54259;SDS011;40172;53.022;7.012;2022-07-06T05:01:50;5.25;;;1.70;;
54259;SDS011;40172;53.022;7.012;2022-07-06T05:04:16;10.95;;;2.45;;
54259;SDS011;40172;53.022;7.012;2022-07-06T05:06:45;9.18;;;1.83;;
54259;SDS011;40172;53.022;7.012;2022-07-06T05:09:11;15.23;;;2.95;;
54259;SDS011;40172;53.022;7.012;2022-07-06T05:11:40;7.93;;;1.67;;
54259;SDS011;40172;53.022;7.012;2022-07-06T05:14:06;8.90;;;1.80;;
54259;SDS011;40172;53.022;7.012;2022-07-06T05:16:32;8.05;;;1.92;;
54259;SDS011;40172;53.022;7.012;2022-07-06T05:18:57;8.68;;;2.03;;
54259;SDS011;40172;53.022;7.012;2022-07-06T05:21:23;11.00;;;2.42;;
54259;SDS011;40172;53.022;7.012;2022-07-06T05:23:49;6.35;;;1.60;;
54259;SDS011;40172;53.022;7.012;2022-07-06T05:26:15;7.97;;;1.92;;
54259;SDS011;40172;53.022;7.012;2022-07-06T05:28:41;10.45;;;1.67;;
54259;SDS011;40172;53.022;7.012;2022-07-06T05:31:06;7.90;;;1.48;;
54259;SDS011;40172;53.022;7.012;2022-07-06T05:33:32;5.32;;;1.40;;
54259;SDS011;40172;53.022;7.012;2022-07-06T05:35:58;10.05;;;1.48;;
54259;SDS011;40172;53.022;7.012;2022-07-06T05:38:23;8.02;;;1.30;;
54259;SDS011;40172;53.022;7.012;2022-07-06T05:40:49;8.40;;;1.60;;
54259;SDS011;40172;53.022;7.012;2022-07-06T05:43:15;4.40;;;1.30;;
54259;SDS011;40172;53.022;7.012;2022-07-06T05:45:41;3.97;;;1.23;;
54259;SDS011;40172;53.022;7.012;2022-07-06T05:48:06;6.38;;;1.15;;
54259;SDS011;40172;53.022;7.012;2022-07-06T05:53:16;7.60;;;1.20;;
54259;SDS011;40172;53.022;7.012;2022-07-06T05:55:42;8.50;;;1.42;;
54259;SDS011;40172;53.022;7.012;2022-07-06T05:58:07;13.30;;;1.33;;
54259;SDS011;40172;53.022;7.012;2022-07-06T06:00:33;9.07;;;1.60;;
54259;SDS011;40172;53.022;7.012;2022-07-06T06:02:59;6.25;;;1.48;;
54259;SDS011;40172;53.022;7.012;2022-07-06T06:05:24;7.30;;;1.35;;
54259;SDS011;40172;53.022;7.012;2022-07-06T06:07:51;6.07;;;1.40;;
54259;SDS011;40172;53.022;7.012;2022-07-06T06:10:18;5.20;;;1.42;;
54259;SDS011;40172;53.022;7.012;2022-07-06T06:12:44;8.60;;;1.48;;
54259;SDS011;40172;53.022;7.012;2022-07-06T06:15:11;6.40;;;1.50;;
54259;SDS011;40172;53.022;7.012;2022-07-06T06:17:37;7.43;;;1.30;;
54259;SDS011;40172;53.022;7.012;2022-07-06T06:20:04;5.80;;;1.20;;
54259;SDS011;40172;53.022;7.012;2022-07-06T06:22:43;5.28;;;1.10;;
54259;SDS011;40172;53.022;7.012;2022-07-06T06:25:16;5.43;;;1.17;;
54259;SDS011;40172;53.022;7.012;2022-07-06T06:27:43;6.43;;;1.25;;
54259;SDS011;40172;53.022;7.012;2022-07-06T06:30:09;8.27;;;1.20;;
54259;SDS011;40172;53.022;7.012;2022-07-06T06:32:35;7.03;;;1.40;;
54259;SDS011;40172;53.022;7.012;2022-07-06T06:35:02;6.32;;;1.13;;
54259;SDS011;40172;53.022;7.012;2022-07-06T06:37:28;7.57;;;1.30;;
54259;SDS011;40172;53.022;7.012;2022-07-06T06:39:54;9.43;;;1.50;;
54259;SDS011;40172;53.022;7.012;2022-07-06T06:42:19;4.40;;;1.20;;
54259;SDS011;40172;53.022;7.012;2022-07-06T06:44:45;7.97;;;1.27;;
54259;SDS011;40172;53.022;7.012;2022-07-06T06:47:10;3.90;;;0.90;;
54259;SDS011;40172;53.022;7.012;2022-07-06T06:49:36;3.70;;;0.80;;
54259;SDS011;40172;53.022;7.012;2022-07-06T06:52:02;5.97;;;0.90;;
54259;SDS011;40172;53.022;7.012;2022-07-06T06:54:27;2.00;;;0.70;;
54259;SDS011;40172;53.022;7.012;2022-07-06T06:56:53;3.50;;;0.82;;
54259;SDS011;40172;53.022;7.012;2022-07-06T06:59:18;3.85;;;0.80;;
54259;SDS011;40172;53.022;7.012;2022-07-06T07:01:44;7.63;;;0.88;;
54259;SDS011;40172;53.022;7.012;2022-07-06T07:04:10;5.97;;;0.82;;
54259;SDS011;40172;53.022;7.012;2022-07-06T07:06:36;4.10;;;0.80;;
54259;SDS011;40172;53.022;7.012;2022-07-06T07:09:02;3.97;;;0.82;;
54259;SDS011;40172;53.022;7.012;2022-07-06T07:11:28;2.63;;;0.70;;
54259;SDS011;40172;53.022;7.012;2022-07-06T07:13:53;3.58;;;0.93;;
54259;SDS011;40172;53.022;7.012;2022-07-06T07:16:19;5.55;;;1.10;;
54259;SDS011;40172;53.022;7.012;2022-07-06T07:18:45;5.10;;;1.23;;
54259;SDS011;40172;53.022;7.012;2022-07-06T07:21:11;5.15;;;1.13;;
54259;SDS011;40172;53.022;7.012;2022-07-06T07:23:36;5.88;;;1.00;;
54259;SDS011;40172;53.022;7.012;2022-07-06T07:26:02;4.47;;;0.80;;
54259;SDS011;40172;53.022;7.012;2022-07-06T07:28:27;4.60;;;1.30;;
54259;SDS011;40172;53.022;7.012;2022-07-06T07:30:53;6.53;;;1.00;;
54259;SDS011;40172;53.022;7.012;2022-07-06T07:33:19;4.65;;;1.00;;
54259;SDS011;40172;53.022;7.012;2022-07-06T07:35:44;5.80;;;1.08;;
54259;SDS011;40172;53.022;7.012;2022-07-06T07:38:10;6.95;;;1.00;;
54259;SDS011;40172;53.022;7.012;2022-07-06T07:40:36;3.08;;;0.95;;
54259;SDS011;40172;53.022;7.012;2022-07-06T07:43:01;5.38;;;1.20;;
54259;SDS011;40172;53.022;7.012;2022-07-06T07:45:27;5.13;;;1.08;;
54259;SDS011;40172;53.022;7.012;2022-07-06T07:47:53;4.18;;;0.95;;
54259;SDS011;40172;53.022;7.012;2022-07-06T07:50:18;6.75;;;1.02;;
54259;SDS011;40172;53.022;7.012;2022-07-06T07:52:44;5.38;;;0.98;;
54259;SDS011;40172;53.022;7.012;2022-07-06T07:55:10;6.20;;;1.20;;
54259;SDS011;40172;53.022;7.012;2022-07-06T07:57:37;8.23;;;1.30;;
54259;SDS011;40172;53.022;7.012;2022-07-06T08:00:03;6.88;;;1.00;;
54259;SDS011;40172;53.022;7.012;2022-07-06T08:02:30;4.85;;;0.98;;
54259;SDS011;40172;53.022;7.012;2022-07-06T08:04:55;8.50;;;1.48;;
54259;SDS011;40172;53.022;7.012;2022-07-06T08:07:21;7.43;;;1.30;;
54259;SDS011;40172;53.022;7.012;2022-07-06T08:09:47;8.13;;;1.25;;
54259;SDS011;40172;53.022;7.012;2022-07-06T08:12:12;4.65;;;1.13;;
54259;SDS011;40172;53.022;7.012;2022-07-06T08:14:38;5.13;;;1.17;;
54259;SDS011;40172;53.022;7.012;2022-07-06T08:17:04;10.10;;;1.48;;
54259;SDS011;40172;53.022;7.012;2022-07-06T08:19:29;5.80;;;1.13;;
54259;SDS011;40172;53.022;7.012;2022-07-06T08:21:56;8.40;;;1.42;;
54259;SDS011;40172;53.022;7.012;2022-07-06T08:24:22;6.15;;;1.25;;
54259;SDS011;40172;53.022;7.012;2022-07-06T08:26:47;5.60;;;1.00;;
54259;SDS011;40172;53.022;7.012;2022-07-06T08:29:13;4.85;;;1.17;;
54259;SDS011;40172;53.022;7.012;2022-07-06T08:31:39;7.43;;;1.02;;
54259;SDS011;40172;53.022;7.012;2022-07-06T08:34:05;5.07;;;1.10;;
54259;SDS011;40172;53.022;7.012;2022-07-06T08:36:30;6.93;;;1.40;;
54259;SDS011;40172;53.022;7.012;2022-07-06T08:38:56;5.80;;;1.02;;
54259;SDS011;40172;53.022;7.012;2022-07-06T08:41:23;3.90;;;1.00;;
54259;SDS011;40172;53.022;7.012;2022-07-06T08:43:50;5.93;;;1.00;;
54259;SDS011;40172;53.022;7.012;2022-07-06T08:46:17;4.97;;;1.10;;
54259;SDS011;40172;53.022;7.012;2022-07-06T08:48:44;3.35;;;1.13;;
54259;SDS011;40172;53.022;7.012;2022-07-06T08:51:11;4.13;;;0.93;;
54259;SDS011;40172;53.022;7.012;2022-07-06T08:53:39;9.15;;;1.10;;
54259;SDS011;40172;53.022;7.012;2022-07-06T08:56:06;7.78;;;1.20;;
54259;SDS011;40172;53.022;7.012;2022-07-06T08:58:32;5.50;;;1.10;;
54259;SDS011;40172;53.022;7.012;2022-07-06T09:00:59;4.47;;;1.00;;
54259;SDS011;40172;53.022;7.012;2022-07-06T09:03:25;5.93;;;1.10;;
54259;SDS011;40172;53.022;7.012;2022-07-06T09:05:52;8.60;;;1.35;;
54259;SDS011;40172;53.022;7.012;2022-07-06T09:08:21;8.57;;;1.40;;
54259;SDS011;40172;53.022;7.012;2022-07-06T09:10:48;6.75;;;1.25;;
54259;SDS011;40172;53.022;7.012;2022-07-06T09:13:14;5.90;;;0.90;;
54259;SDS011;40172;53.022;7.012;2022-07-06T09:15:40;4.55;;;1.02;;
54259;SDS011;40172;53.022;7.012;2022-07-06T09:18:06;4.07;;;1.15;;
54259;SDS011;40172;53.022;7.012;2022-07-06T09:20:33;3.78;;;0.95;;
54259;SDS011;40172;53.022;7.012;2022-07-06T09:23:05;8.38;;;1.23;;
54259;SDS011;40172;53.022;7.012;2022-07-06T09:25:31;5.35;;;0.90;;
54259;SDS011;40172;53.022;7.012;2022-07-06T09:27:58;4.93;;;1.02;;
54259;SDS011;40172;53.022;7.012;2022-07-06T09:30:24;5.50;;;1.00;;
54259;SDS011;40172;53.022;7.012;2022-07-06T09:32:52;5.53;;;1.00;;
54259;SDS011;40172;53.022;7.012;2022-07-06T09:37:45;6.80;;;0.98;;
54259;SDS011;40172;53.022;7.012;2022-07-06T09:40:17;5.13;;;1.00;;
54259;SDS011;40172;53.022;7.012;2022-07-06T09:42:44;3.08;;;0.85;;
54259;SDS011;40172;53.022;7.012;2022-07-06T09:45:09;8.15;;;1.10;;
54259;SDS011;40172;53.022;7.012;2022-07-06T09:47:35;5.28;;;0.80;;
54259;SDS011;40172;53.022;7.012;2022-07-06T09:50:04;5.30;;;0.90;;
54259;SDS011;40172;53.022;7.012;2022-07-06T09:52:34;4.65;;;0.70;;
54259;SDS011;40172;53.022;7.012;2022-07-06T09:55:00;3.17;;;0.80;;
54259;SDS011;40172;53.022;7.012;2022-07-06T09:57:30;4.18;;;0.70;;
54259;SDS011;40172;53.022;7.012;2022-07-06T09:59:56;3.22;;;0.82;;
54259;SDS011;40172;53.022;7.012;2022-07-06T10:02:23;3.72;;;0.80;;
54259;SDS011;40172;53.022;7.012;2022-07-06T10:04:51;4.35;;;1.00;;
54259;SDS011;40172;53.022;7.012;2022-07-06T10:07:20;3.95;;;0.95;;
54259;SDS011;40172;53.022;7.012;2022-07-06T10:09:48;3.08;;;0.90;;
54259;SDS011;40172;53.022;7.012;2022-07-06T10:12:16;5.85;;;1.08;;
54259;SDS011;40172;53.022;7.012;2022-07-06T10:14:43;2.55;;;0.70;;
54259;SDS011;40172;53.022;7.012;2022-07-06T10:17:09;2.63;;;0.63;;
54259;SDS011;40172;53.022;7.012;2022-07-06T10:19:35;6.38;;;0.80;;
54259;SDS011;40172;53.022;7.012;2022-07-06T10:22:02;3.47;;;0.80;;
54259;SDS011;40172;53.022;7.012;2022-07-06T10:24:29;3.92;;;0.80;;
54259;SDS011;40172;53.022;7.012;2022-07-06T10:26:55;7.05;;;1.05;;
54259;SDS011;40172;53.022;7.012;2022-07-06T10:29:21;5.50;;;1.00;;
54259;SDS011;40172;53.022;7.012;2022-07-06T10:31:49;6.70;;;0.90;;
54259;SDS011;40172;53.022;7.012;2022-07-06T10:34:17;8.77;;;1.17;;
54259;SDS011;40172;53.022;7.012;2022-07-06T10:36:46;6.50;;;1.00;;
54259;SDS011;40172;53.022;7.012;2022-07-06T10:39:15;4.53;;;0.95;;
54259;SDS011;40172;53.022;7.012;2022-07-06T10:42:00;5.90;;;0.90;;
54259;SDS011;40172;53.022;7.012;2022-07-06T10:44:26;7.00;;;1.13;;
54259;SDS011;40172;53.022;7.012;2022-07-06T10:46:56;5.25;;;1.05;;
54259;SDS011;40172;53.022;7.012;2022-07-06T10:49:23;5.65;;;0.70;;
54259;SDS011;40172;53.022;7.012;2022-07-06T10:51:50;11.55;;;1.17;;
54259;SDS011;40172;53.022;7.012;2022-07-06T10:54:18;5.82;;;1.00;;
54259;SDS011;40172;53.022;7.012;2022-07-06T10:56:45;6.35;;;1.00;;
54259;SDS011;40172;53.022;7.012;2022-07-06T10:59:13;3.67;;;0.90;;
54259;SDS011;40172;53.022;7.012;2022-07-06T11:04:46;2.35;;;0.90;;
54259;SDS011;40172;53.022;7.012;2022-07-06T11:07:14;5.40;;;0.98;;
54259;SDS011;40172;53.022;7.012;2022-07-06T11:10:01;3.83;;;0.80;;
54259;SDS011;40172;53.022;7.012;2022-07-06T11:12:27;4.53;;;0.80;;
54259;SDS011;40172;53.022;7.012;2022-07-06T11:14:53;4.60;;;0.98;;
54259;SDS011;40172;53.022;7.012;2022-07-06T11:17:19;6.00;;;1.17;;
54259;SDS011;40172;53.022;7.012;2022-07-06T11:19:49;3.30;;;0.80;;
54259;SDS011;40172;53.022;7.012;2022-07-06T11:22:15;4.13;;;0.98;;
54259;SDS011;40172;53.022;7.012;2022-07-06T11:24:42;4.10;;;1.00;;
54259;SDS011;40172;53.022;7.012;2022-07-06T11:27:08;3.42;;;0.70;;
54259;SDS011;40172;53.022;7.012;2022-07-06T11:29:34;5.63;;;1.02;;
54259;SDS011;40172;53.022;7.012;2022-07-06T11:32:04;4.03;;;1.00;;
54259;SDS011;40172;53.022;7.012;2022-07-06T11:34:31;6.60;;;1.05;;
54259;SDS011;40172;53.022;7.012;2022-07-06T11:37:03;5.50;;;1.10;;
54259;SDS011;40172;53.022;7.012;2022-07-06T11:39:33;6.55;;;1.05;;
54259;SDS011;40172;53.022;7.012;2022-07-06T11:42:06;6.10;;;1.00;;
54259;SDS011;40172;53.022;7.012;2022-07-06T11:44:34;5.93;;;1.13;;
54259;SDS011;40172;53.022;7.012;2022-07-06T11:47:00;3.38;;;0.73;;
54259;SDS011;40172;53.022;7.012;2022-07-06T11:49:28;5.35;;;0.95;;
54259;SDS011;40172;53.022;7.012;2022-07-06T11:51:55;3.95;;;0.90;;
54259;SDS011;40172;53.022;7.012;2022-07-06T11:54:21;3.97;;;0.80;;
54259;SDS011;40172;53.022;7.012;2022-07-06T11:59:24;4.18;;;0.85;;
54259;SDS011;40172;53.022;7.012;2022-07-06T12:01:58;3.40;;;1.10;;
54259;SDS011;40172;53.022;7.012;2022-07-06T12:04:25;4.57;;;1.23;;
54259;SDS011;40172;53.022;7.012;2022-07-06T12:06:51;5.75;;;0.90;;
54259;SDS011;40172;53.022;7.012;2022-07-06T12:09:16;5.78;;;0.98;;
54259;SDS011;40172;53.022;7.012;2022-07-06T12:11:44;7.70;;;0.90;;
54259;SDS011;40172;53.022;7.012;2022-07-06T12:14:18;7.32;;;1.35;;
54259;SDS011;40172;53.022;7.012;2022-07-06T12:16:46;3.22;;;0.80;;
54259;SDS011;40172;53.022;7.012;2022-07-06T12:19:14;5.30;;;0.95;;
54259;SDS011;40172;53.022;7.012;2022-07-06T12:21:58;3.78;;;1.02;;
54259;SDS011;40172;53.022;7.012;2022-07-06T12:24:27;3.35;;;0.90;;
54259;SDS011;40172;53.022;7.012;2022-07-06T12:26:55;5.13;;;0.82;;
54259;SDS011;40172;53.022;7.012;2022-07-06T12:29:21;3.50;;;0.93;;
54259;SDS011;40172;53.022;7.012;2022-07-06T12:36:45;4.22;;;0.85;;
54259;SDS011;40172;53.022;7.012;2022-07-06T12:39:12;5.97;;;1.00;;
54259;SDS011;40172;53.022;7.012;2022-07-06T12:41:43;8.35;;;1.02;;
54259;SDS011;40172;53.022;7.012;2022-07-06T12:44:10;5.95;;;1.10;;
54259;SDS011;40172;53.022;7.012;2022-07-06T12:46:37;3.97;;;0.95;;
54259;SDS011;40172;53.022;7.012;2022-07-06T12:49:22;7.53;;;1.10;;
54259;SDS011;40172;53.022;7.012;2022-07-06T12:51:52;5.88;;;1.45;;
54259;SDS011;40172;53.022;7.012;2022-07-06T12:54:22;4.53;;;0.88;;
54259;SDS011;40172;53.022;7.012;2022-07-06T12:56:59;4.63;;;1.08;;
54259;SDS011;40172;53.022;7.012;2022-07-06T12:59:34;4.50;;;1.00;;
54259;SDS011;40172;53.022;7.012;2022-07-06T13:02:01;5.55;;;1.08;;
54259;SDS011;40172;53.022;7.012;2022-07-06T13:04:28;3.92;;;1.15;;
54259;SDS011;40172;53.022;7.012;2022-07-06T13:06:55;5.50;;;1.02;;
54259;SDS011;40172;53.022;7.012;2022-07-06T13:09:21;3.63;;;0.90;;
54259;SDS011;40172;53.022;7.012;2022-07-06T13:11:47;3.58;;;0.93;;
54259;SDS011;40172;53.022;7.012;2022-07-06T13:14:17;5.30;;;1.00;;
54259;SDS011;40172;53.022;7.012;2022-07-06T13:16:44;3.65;;;0.90;;
54259;SDS011;40172;53.022;7.012;2022-07-06T13:19:11;7.72;;;1.05;;
54259;SDS011;40172;53.022;7.012;2022-07-06T13:21:37;4.45;;;1.10;;
54259;SDS011;40172;53.022;7.012;2022-07-06T13:24:03;4.43;;;0.80;;
54259;SDS011;40172;53.022;7.012;2022-07-06T13:26:29;3.67;;;0.80;;
54259;SDS011;40172;53.022;7.012;2022-07-06T13:29:02;3.15;;;0.95;;
54259;SDS011;40172;53.022;7.012;2022-07-06T13:31:28;5.30;;;1.02;;
54259;SDS011;40172;53.022;7.012;2022-07-06T13:33:54;5.45;;;1.00;;
54259;SDS011;40172;53.022;7.012;2022-07-06T13:36:20;2.97;;;0.80;;
54259;SDS011;40172;53.022;7.012;2022-07-06T13:38:46;4.10;;;1.00;;
54259;SDS011;40172;53.022;7.012;2022-07-06T13:41:12;2.63;;;0.90;;
54259;SDS011;40172;53.022;7.012;2022-07-06T13:43:37;7.20;;;0.98;;
54259;SDS011;40172;53.022;7.012;2022-07-06T13:46:03;3.40;;;0.85;;
54259;SDS011;40172;53.022;7.012;2022-07-06T13:48:30;4.30;;;1.08;;
54259;SDS011;40172;53.022;7.012;2022-07-06T13:50:56;7.28;;;0.90;;
54259;SDS011;40172;53.022;7.012;2022-07-06T13:53:22;3.65;;;0.70;;
54259;SDS011;40172;53.022;7.012;2022-07-06T13:55:48;3.42;;;0.88;;
54259;SDS011;40172;53.022;7.012;2022-07-06T13:58:14;3.25;;;0.70;;
54259;SDS011;40172;53.022;7.012;2022-07-06T14:00:40;3.67;;;1.00;;
54259;SDS011;40172;53.022;7.012;2022-07-06T14:03:06;2.47;;;0.80;;
54259;SDS011;40172;53.022;7.012;2022-07-06T14:05:32;3.38;;;0.98;;
54259;SDS011;40172;53.022;7.012;2022-07-06T14:07:57;5.30;;;0.82;;
54259;SDS011;40172;53.022;7.012;2022-07-06T14:10:23;4.40;;;0.82;;
54259;SDS011;40172;53.022;7.012;2022-07-06T14:12:49;4.30;;;0.93;;
54259;SDS011;40172;53.022;7.012;2022-07-06T14:15:14;2.60;;;0.90;;
54259;SDS011;40172;53.022;7.012;2022-07-06T14:17:40;5.35;;;1.02;;
54259;SDS011;40172;53.022;7.012;2022-07-06T14:20:06;2.88;;;0.95;;
54259;SDS011;40172;53.022;7.012;2022-07-06T14:22:32;6.18;;;1.00;;
54259;SDS011;40172;53.022;7.012;2022-07-06T14:24:58;3.83;;;0.70;;
54259;SDS011;40172;53.022;7.012;2022-07-06T14:27:24;3.33;;;0.90;;
54259;SDS011;40172;53.022;7.012;2022-07-06T14:29:50;6.00;;;1.23;;
54259;SDS011;40172;53.022;7.012;2022-07-06T14:32:16;5.45;;;1.10;;
54259;SDS011;40172;53.022;7.012;2022-07-06T14:34:41;3.67;;;0.90;;
54259;SDS011;40172;53.022;7.012;2022-07-06T14:37:07;5.72;;;1.00;;
54259;SDS011;40172;53.022;7.012;2022-07-06T14:39:33;3.00;;;0.90;;
54259;SDS011;40172;53.022;7.012;2022-07-06T14:41:58;3.03;;;0.90;;
54259;SDS011;40172;53.022;7.012;2022-07-06T14:44:24;5.70;;;0.90;;
54259;SDS011;40172;53.022;7.012;2022-07-06T14:46:51;7.43;;;1.27;;
54259;SDS011;40172;53.022;7.012;2022-07-06T14:49:17;4.10;;;0.90;;
54259;SDS011;40172;53.022;7.012;2022-07-06T14:51:42;3.85;;;0.80;;
54259;SDS011;40172;53.022;7.012;2022-07-06T14:54:08;3.38;;;1.00;;
54259;SDS011;40172;53.022;7.012;2022-07-06T14:56:34;4.75;;;1.00;;
54259;SDS011;40172;53.022;7.012;2022-07-06T14:59:00;3.75;;;0.90;;
54259;SDS011;40172;53.022;7.012;2022-07-06T15:01:25;5.45;;;0.90;;
54259;SDS011;40172;53.022;7.012;2022-07-06T15:03:51;3.85;;;1.00;;
54259;SDS011;40172;53.022;7.012;2022-07-06T15:06:17;5.57;;;0.85;;
54259;SDS011;40172;53.022;7.012;2022-07-06T15:08:43;4.60;;;1.00;;
54259;SDS011;40172;53.022;7.012;2022-07-06T15:11:09;2.10;;;0.70;;
54259;SDS011;40172;53.022;7.012;2022-07-06T15:13:34;3.40;;;0.90;;
54259;SDS011;40172;53.022;7.012;2022-07-06T15:16:00;3.97;;;1.00;;
54259;SDS011;40172;53.022;7.012;2022-07-06T15:18:26;5.53;;;1.10;;
54259;SDS011;40172;53.022;7.012;2022-07-06T15:20:51;4.47;;;1.05;;
54259;SDS011;40172;53.022;7.012;2022-07-06T15:23:17;3.05;;;0.70;;
54259;SDS011;40172;53.022;7.012;2022-07-06T15:25:43;2.35;;;0.70;;
54259;SDS011;40172;53.022;7.012;2022-07-06T15:28:09;1.50;;;0.80;;
54259;SDS011;40172;53.022;7.012;2022-07-06T15:30:35;4.78;;;1.00;;
54259;SDS011;40172;53.022;7.012;2022-07-06T15:33:01;5.03;;;1.10;;
54259;SDS011;40172;53.022;7.012;2022-07-06T15:35:27;5.68;;;1.10;;
54259;SDS011;40172;53.022;7.012;2022-07-06T15:37:53;4.53;;;0.93;;
54259;SDS011;40172;53.022;7.012;2022-07-06T15:40:18;4.65;;;0.88;;
54259;SDS011;40172;53.022;7.012;2022-07-06T15:42:49;7.40;;;1.27;;
54259;SDS011;40172;53.022;7.012;2022-07-06T15:45:19;3.75;;;0.75;;
54259;SDS011;40172;53.022;7.012;2022-07-06T15:47:45;2.47;;;0.90;;
54259;SDS011;40172;53.022;7.012;2022-07-06T15:50:10;2.80;;;0.75;;
54259;SDS011;40172;53.022;7.012;2022-07-06T15:52:36;3.95;;;1.40;;
54259;SDS011;40172;53.022;7.012;2022-07-06T15:55:02;4.38;;;1.10;;
54259;SDS011;40172;53.022;7.012;2022-07-06T15:57:28;7.38;;;1.10;;
54259;SDS011;40172;53.022;7.012;2022-07-06T15:59:53;4.13;;;1.27;;
54259;SDS011;40172;53.022;7.012;2022-07-06T16:02:19;7.05;;;1.70;;
54259;SDS011;40172;53.022;7.012;2022-07-06T16:04:45;6.90;;;1.90;;
54259;SDS011;40172;53.022;7.012;2022-07-06T16:07:11;5.93;;;1.88;;
54259;SDS011;40172;53.022;7.012;2022-07-06T16:09:37;6.50;;;2.03;;
54259;SDS011;40172;53.022;7.012;2022-07-06T16:12:03;6.88;;;2.22;;
54259;SDS011;40172;53.022;7.012;2022-07-06T16:14:29;5.22;;;1.88;;
54259;SDS011;40172;53.022;7.012;2022-07-06T16:16:55;6.53;;;1.58;;
54259;SDS011;40172;53.022;7.012;2022-07-06T16:19:21;6.68;;;2.10;;
54259;SDS011;40172;53.022;7.012;2022-07-06T16:21:46;4.25;;;1.35;;
54259;SDS011;40172;53.022;7.012;2022-07-06T16:24:12;7.60;;;2.13;;
54259;SDS011;40172;53.022;7.012;2022-07-06T16:26:38;4.22;;;1.45;;
54259;SDS011;40172;53.022;7.012;2022-07-06T16:29:03;9.45;;;1.60;;
54259;SDS011;40172;53.022;7.012;2022-07-06T16:31:29;8.02;;;1.77;;
54259;SDS011;40172;53.022;7.012;2022-07-06T16:33:55;8.10;;;1.70;;
54259;SDS011;40172;53.022;7.012;2022-07-06T16:36:21;7.57;;;1.63;;
54259;SDS011;40172;53.022;7.012;2022-07-06T16:38:47;4.90;;;1.63;;
54259;SDS011;40172;53.022;7.012;2022-07-06T16:41:12;5.80;;;1.25;;
54259;SDS011;40172;53.022;7.012;2022-07-06T16:43:38;5.78;;;1.80;;
54259;SDS011;40172;53.022;7.012;2022-07-06T16:46:04;7.55;;;2.33;;
54259;SDS011;40172;53.022;7.012;2022-07-06T16:48:29;5.97;;;1.67;;
54259;SDS011;40172;53.022;7.012;2022-07-06T16:50:56;10.00;;;1.77;;
54259;SDS011;40172;53.022;7.012;2022-07-06T16:53:22;9.65;;;2.15;;
54259;SDS011;40172;53.022;7.012;2022-07-06T16:55:48;5.97;;;2.00;;
54259;SDS011;40172;53.022;7.012;2022-07-06T16:58:14;7.03;;;1.75;;
54259;SDS011;40172;53.022;7.012;2022-07-06T17:00:40;7.85;;;1.80;;
54259;SDS011;40172;53.022;7.012;2022-07-06T17:03:05;6.63;;;1.60;;
54259;SDS011;40172;53.022;7.012;2022-07-06T17:05:31;6.75;;;2.03;;
54259;SDS011;40172;53.022;7.012;2022-07-06T17:07:57;5.82;;;1.65;;
54259;SDS011;40172;53.022;7.012;2022-07-06T17:10:23;6.78;;;2.00;;
54259;SDS011;40172;53.022;7.012;2022-07-06T17:12:48;8.45;;;1.73;;
54259;SDS011;40172;53.022;7.012;2022-07-06T17:15:14;4.25;;;1.75;;
54259;SDS011;40172;53.022;7.012;2022-07-06T17:17:40;5.30;;;1.85;;
54259;SDS011;40172;53.022;7.012;2022-07-06T17:20:06;7.90;;;1.85;;
54259;SDS011;40172;53.022;7.012;2022-07-06T17:22:32;9.20;;;2.00;;
54259;SDS011;40172;53.022;7.012;2022-07-06T17:24:58;7.07;;;2.10;;
54259;SDS011;40172;53.022;7.012;2022-07-06T17:27:24;4.22;;;1.80;;
54259;SDS011;40172;53.022;7.012;2022-07-06T17:29:49;7.03;;;2.10;;
54259;SDS011;40172;53.022;7.012;2022-07-06T17:32:15;9.13;;;2.20;;
54259;SDS011;40172;53.022;7.012;2022-07-06T17:34:40;6.28;;;2.17;;
54259;SDS011;40172;53.022;7.012;2022-07-06T17:37:08;7.07;;;1.95;;
54259;SDS011;40172;53.022;7.012;2022-07-06T17:39:35;6.72;;;2.10;;
54259;SDS011;40172;53.022;7.012;2022-07-06T17:42:01;5.40;;;2.10;;
54259;SDS011;40172;53.022;7.012;2022-07-06T17:44:27;7.13;;;2.33;;
54259;SDS011;40172;53.022;7.012;2022-07-06T17:46:53;5.47;;;2.00;;
54259;SDS011;40172;53.022;7.012;2022-07-06T17:49:20;8.25;;;2.13;;
54259;SDS011;40172;53.022;7.012;2022-07-06T17:51:46;5.90;;;2.22;;
54259;SDS011;40172;53.022;7.012;2022-07-06T17:54:12;5.72;;;2.30;;
54259;SDS011;40172;53.022;7.012;2022-07-06T17:56:37;4.72;;;2.17;;
54259;SDS011;40172;53.022;7.012;2022-07-06T17:59:03;7.65;;;2.30;;
54259;SDS011;40172;53.022;7.012;2022-07-06T18:01:28;7.28;;;2.28;;
54259;SDS011;40172;53.022;7.012;2022-07-06T18:03:54;7.30;;;2.40;;
54259;SDS011;40172;53.022;7.012;2022-07-06T18:06:20;5.55;;;2.30;;
54259;SDS011;40172;53.022;7.012;2022-07-06T18:08:46;6.95;;;2.47;;
54259;SDS011;40172;53.022;7.012;2022-07-06T18:11:12;4.43;;;2.25;;
54259;SDS011;40172;53.022;7.012;2022-07-06T18:13:37;4.60;;;2.38;;
54259;SDS011;40172;53.022;7.012;2022-07-06T18:16:03;7.03;;;2.50;;
54259;SDS011;40172;53.022;7.012;2022-07-06T18:18:29;9.02;;;2.60;;
54259;SDS011;40172;53.022;7.012;2022-07-06T18:20:55;7.90;;;2.53;;
54259;SDS011;40172;53.022;7.012;2022-07-06T18:23:22;8.57;;;2.92;;
54259;SDS011;40172;53.022;7.012;2022-07-06T18:25:49;7.00;;;2.88;;
54259;SDS011;40172;53.022;7.012;2022-07-06T18:28:15;8.98;;;3.17;;
54259;SDS011;40172;53.022;7.012;2022-07-06T18:30:45;7.53;;;2.78;;
54259;SDS011;40172;53.022;7.012;2022-07-06T18:33:12;8.15;;;3.40;;
54259;SDS011;40172;53.022;7.012;2022-07-06T18:35:38;7.20;;;3.13;;
54259;SDS011;40172;53.022;7.012;2022-07-06T18:38:04;7.40;;;3.45;;
54259;SDS011;40172;53.022;7.012;2022-07-06T18:40:31;8.18;;;3.70;;
54259;SDS011;40172;53.022;7.012;2022-07-06T18:42:57;8.38;;;3.30;;